Terminal Aerodrome Forecast
Issued by NWS Charleston, WV

Current Version | Previous Version | Graphics & Text | Print | Product List | Glossary On
Versions: 1 2 3 4 5 6 7 8 9 10 11 12 13 14 15 16 17 18 19 20
000
FTUS41 KRLX 271458 AAA
TAFHTS
TAF AMD
KHTS 271458Z 2715/2812 20010KT 5SM BR BKN014 OVC021
     FM271700 23008KT P6SM VCTS BKN035CB
     FM272000 25009KT P6SM BKN040
     FM280000 28008KT P6SM BKN050
     FM280300 25005KT P6SM BKN025
     FM280800 23005KT P6SM BKN035=

USA.gov is the U.S. government's official web portal to all federal, state and local government web resources and services.